sensor_id;sensor_type;location;lat;lon;timestamp;pressure;altitude;pressure_sealevel;temperature;humidity
38253;BME280;24785;52.372;20.672;2023-09-07T00:05:01;101670.00;;;11.25;100.00
38253;BME280;24785;52.372;20.672;2023-09-07T00:15:02;101681.00;;;11.07;100.00
38253;BME280;24785;52.372;20.672;2023-09-07T00:25:04;101675.56;;;11.01;100.00
38253;BME280;24785;52.372;20.672;2023-09-07T00:35:08;101698.00;;;10.95;100.00
38253;BME280;24785;52.372;20.672;2023-09-07T00:45:09;101693.13;;;10.92;100.00
38253;BME280;24785;52.372;20.672;2023-09-07T00:55:10;101681.41;;;10.82;100.00
38253;BME280;24785;52.372;20.672;2023-09-07T01:05:11;101687.44;;;10.72;100.00
38253;BME280;24785;52.372;20.672;2023-09-07T01:15:12;101684.03;;;10.60;100.00
38253;BME280;24785;52.372;20.672;2023-09-07T01:25:13;101690.28;;;10.49;100.00
38253;BME280;24785;52.372;20.672;2023-09-07T01:35:14;101686.00;;;10.36;100.00
38253;BME280;24785;52.372;20.672;2023-09-07T01:45:17;101675.94;;;10.26;100.00
38253;BME280;24785;52.372;20.672;2023-09-07T01:55:18;101684.94;;;10.20;100.00
38253;BME280;24785;52.372;20.672;2023-09-07T02:05:18;101678.06;;;10.13;100.00
38253;BME280;24785;52.372;20.672;2023-09-07T02:15:20;101680.00;;;9.89;100.00
38253;BME280;24785;52.372;20.672;2023-09-07T02:25:20;101687.69;;;9.85;100.00
38253;BME280;24785;52.372;20.672;2023-09-07T02:35:21;101688.16;;;9.82;100.00
38253;BME280;24785;52.372;20.672;2023-09-07T02:45:23;101691.69;;;9.71;100.00
38253;BME280;24785;52.372;20.672;2023-09-07T02:55:23;101700.19;;;9.68;100.00
38253;BME280;24785;52.372;20.672;2023-09-07T03:05:27;101704.75;;;9.67;100.00
38253;BME280;24785;52.372;20.672;2023-09-07T03:15:28;101703.97;;;9.55;100.00
38253;BME280;24785;52.372;20.672;2023-09-07T03:25:29;101709.66;;;9.47;100.00
38253;BME280;24785;52.372;20.672;2023-09-07T03:35:30;101714.19;;;9.35;100.00
38253;BME280;24785;52.372;20.672;2023-09-07T03:45:31;101708.38;;;9.38;100.00
38253;BME280;24785;52.372;20.672;2023-09-07T03:55:43;101715.59;;;9.37;100.00
38253;BME280;24785;52.372;20.672;2023-09-07T04:05:44;101712.69;;;9.27;100.00
38253;BME280;24785;52.372;20.672;2023-09-07T04:15:45;101726.41;;;9.42;100.00
38253;BME280;24785;52.372;20.672;2023-09-07T04:25:47;101721.75;;;9.61;100.00
38253;BME280;24785;52.372;20.672;2023-09-07T04:35:48;101734.13;;;10.02;100.00
38253;BME280;24785;52.372;20.672;2023-09-07T04:45:48;101734.78;;;10.50;100.00
38253;BME280;24785;52.372;20.672;2023-09-07T04:55:49;101756.34;;;11.22;100.00
38253;BME280;24785;52.372;20.672;2023-09-07T05:05:53;101754.66;;;11.71;100.00
38253;BME280;24785;52.372;20.672;2023-09-07T05:15:55;101776.25;;;12.20;100.00
38253;BME280;24785;52.372;20.672;2023-09-07T05:25:56;101778.16;;;12.73;100.00
38253;BME280;24785;52.372;20.672;2023-09-07T05:35:57;101782.47;;;13.33;100.00
38253;BME280;24785;52.372;20.672;2023-09-07T05:45:58;101790.66;;;13.96;100.00
38253;BME280;24785;52.372;20.672;2023-09-07T05:55:59;101791.97;;;14.66;100.00
38253;BME280;24785;52.372;20.672;2023-09-07T06:05:59;101801.19;;;15.36;100.00
38253;BME280;24785;52.372;20.672;2023-09-07T06:16:00;101803.25;;;16.00;100.00
38253;BME280;24785;52.372;20.672;2023-09-07T06:26:02;101801.88;;;16.62;100.00
38253;BME280;24785;52.372;20.672;2023-09-07T06:36:03;101815.41;;;17.06;100.00
38253;BME280;24785;52.372;20.672;2023-09-07T06:46:08;101809.34;;;17.48;100.00
38253;BME280;24785;52.372;20.672;2023-09-07T06:56:09;101815.00;;;17.81;100.00
38253;BME280;24785;52.372;20.672;2023-09-07T07:06:10;101816.34;;;18.07;100.00
38253;BME280;24785;52.372;20.672;2023-09-07T07:16:11;101821.69;;;18.55;100.00
38253;BME280;24785;52.372;20.672;2023-09-07T07:26:12;101816.00;;;18.94;100.00
38253;BME280;24785;52.372;20.672;2023-09-07T07:36:13;101828.22;;;19.43;100.00
38253;BME280;24785;52.372;20.672;2023-09-07T07:46:14;101828.88;;;19.81;99.68
38253;BME280;24785;52.372;20.672;2023-09-07T07:56:18;101821.25;;;20.10;94.29
38253;BME280;24785;52.372;20.672;2023-09-07T08:06:19;101839.38;;;20.56;89.84
38253;BME280;24785;52.372;20.672;2023-09-07T08:16:19;101836.81;;;21.18;87.76
38253;BME280;24785;52.372;20.672;2023-09-07T08:26:20;101829.19;;;21.51;84.46
38253;BME280;24785;52.372;20.672;2023-09-07T08:36:21;101822.94;;;21.90;80.75
38253;BME280;24785;52.372;20.672;2023-09-07T08:46:24;101827.22;;;22.22;78.10
38253;BME280;24785;52.372;20.672;2023-09-07T08:56:25;101826.50;;;22.65;75.57
38253;BME280;24785;52.372;20.672;2023-09-07T09:06:26;101821.88;;;22.91;72.65
38253;BME280;24785;52.372;20.672;2023-09-07T09:16:27;101815.19;;;23.36;69.73
38253;BME280;24785;52.372;20.672;2023-09-07T09:26:28;101814.13;;;23.75;68.80
38253;BME280;24785;52.372;20.672;2023-09-07T09:36:35;101806.97;;;23.91;66.75
38253;BME280;24785;52.372;20.672;2023-09-07T09:46:38;101794.28;;;23.86;66.08
38253;BME280;24785;52.372;20.672;2023-09-07T09:56:41;101797.69;;;24.13;64.01
38253;BME280;24785;52.372;20.672;2023-09-07T10:06:56;101797.78;;;24.46;61.01
38253;BME280;24785;52.372;20.672;2023-09-07T10:16:56;101798.22;;;24.90;60.47
38253;BME280;24785;52.372;20.672;2023-09-07T10:27:05;101795.91;;;24.38;61.32
38253;BME280;24785;52.372;20.672;2023-09-07T10:37:07;101794.38;;;24.28;60.76
38253;BME280;24785;52.372;20.672;2023-09-07T10:47:12;101782.94;;;25.22;55.95
38253;BME280;24785;52.372;20.672;2023-09-07T10:57:12;101780.41;;;25.29;56.98
38253;BME280;24785;52.372;20.672;2023-09-07T11:07:18;101773.59;;;25.59;57.14
38253;BME280;24785;52.372;20.672;2023-09-07T11:17:19;101764.47;;;26.56;53.95
38253;BME280;24785;52.372;20.672;2023-09-07T11:27:21;101750.09;;;26.35;51.84
38253;BME280;24785;52.372;20.672;2023-09-07T11:37:24;101756.91;;;25.64;53.25
38253;BME280;24785;52.372;20.672;2023-09-07T11:47:25;101752.41;;;25.48;54.45
38253;BME280;24785;52.372;20.672;2023-09-07T11:57:26;101752.22;;;25.65;53.26
38253;BME280;24785;52.372;20.672;2023-09-07T12:07:27;101737.22;;;25.62;53.07
38253;BME280;24785;52.372;20.672;2023-09-07T12:17:27;101743.66;;;25.79;51.71
38253;BME280;24785;52.372;20.672;2023-09-07T12:27:28;101737.22;;;25.62;50.63
38253;BME280;24785;52.372;20.672;2023-09-07T12:37:29;101732.09;;;25.73;51.06
38253;BME280;24785;52.372;20.672;2023-09-07T12:47:30;101722.69;;;25.98;50.02
38253;BME280;24785;52.372;20.672;2023-09-07T12:57:31;101709.03;;;26.14;49.13
38253;BME280;24785;52.372;20.672;2023-09-07T13:07:32;101695.78;;;26.04;48.49
38253;BME280;24785;52.372;20.672;2023-09-07T13:17:33;101695.47;;;25.08;49.99
38253;BME280;24785;52.372;20.672;2023-09-07T13:27:34;101690.94;;;24.79;51.52
38253;BME280;24785;52.372;20.672;2023-09-07T13:37:35;101681.41;;;25.46;49.91
38253;BME280;24785;52.372;20.672;2023-09-07T13:47:36;101673.97;;;25.83;46.15
38253;BME280;24785;52.372;20.672;2023-09-07T13:57:37;101664.88;;;26.07;45.42
38253;BME280;24785;52.372;20.672;2023-09-07T14:07:38;101659.38;;;25.55;45.55
38253;BME280;24785;52.372;20.672;2023-09-07T14:17:39;101647.69;;;25.46;44.54
38253;BME280;24785;52.372;20.672;2023-09-07T14:27:39;101641.56;;;26.88;42.27
38253;BME280;24785;52.372;20.672;2023-09-07T14:37:40;101648.25;;;26.16;43.30
38253;BME280;24785;52.372;20.672;2023-09-07T14:47:41;101633.78;;;26.03;43.49
38253;BME280;24785;52.372;20.672;2023-09-07T14:57:42;101630.25;;;25.90;43.09
38253;BME280;24785;52.372;20.672;2023-09-07T15:07:43;101628.91;;;25.84;44.65
38253;BME280;24785;52.372;20.672;2023-09-07T15:17:46;101623.22;;;25.40;46.10
38253;BME280;24785;52.372;20.672;2023-09-07T15:27:48;101613.63;;;25.34;45.96
38253;BME280;24785;52.372;20.672;2023-09-07T15:37:49;101614.44;;;25.23;46.56
38253;BME280;24785;52.372;20.672;2023-09-07T15:47:50;101627.56;;;25.41;46.03
38253;BME280;24785;52.372;20.672;2023-09-07T15:57:51;101630.41;;;24.96;49.00
38253;BME280;24785;52.372;20.672;2023-09-07T16:07:52;101617.47;;;24.72;50.86
38253;BME280;24785;52.372;20.672;2023-09-07T16:17:53;101632.09;;;25.86;48.80
38253;BME280;24785;52.372;20.672;2023-09-07T16:27:54;101626.78;;;25.93;48.48
38253;BME280;24785;52.372;20.672;2023-09-07T16:37:56;101639.44;;;24.52;51.96
38253;BME280;24785;52.372;20.672;2023-09-07T16:47:57;101645.19;;;23.54;55.57
38253;BME280;24785;52.372;20.672;2023-09-07T16:57:58;101656.03;;;22.40;59.87
38253;BME280;24785;52.372;20.672;2023-09-07T17:07:58;101654.75;;;21.29;64.77
38253;BME280;24785;52.372;20.672;2023-09-07T17:17:59;101660.44;;;20.57;67.59
38253;BME280;24785;52.372;20.672;2023-09-07T17:28:00;101671.94;;;19.95;71.18
38253;BME280;24785;52.372;20.672;2023-09-07T17:38:01;101676.97;;;19.33;76.59
38253;BME280;24785;52.372;20.672;2023-09-07T17:48:02;101695.56;;;18.66;82.42
38253;BME280;24785;52.372;20.672;2023-09-07T17:58:03;101696.31;;;18.15;86.32
38253;BME280;24785;52.372;20.672;2023-09-07T18:08:04;101687.78;;;17.84;90.81
38253;BME280;24785;52.372;20.672;2023-09-07T18:18:05;101698.56;;;17.42;99.87
38253;BME280;24785;52.372;20.672;2023-09-07T18:28:06;101706.56;;;17.04;100.00
38253;BME280;24785;52.372;20.672;2023-09-07T18:38:07;101710.56;;;16.78;100.00
38253;BME280;24785;52.372;20.672;2023-09-07T18:48:08;101716.06;;;16.67;100.00
38253;BME280;24785;52.372;20.672;2023-09-07T18:58:09;101728.06;;;16.51;100.00
38253;BME280;24785;52.372;20.672;2023-09-07T19:08:10;101732.09;;;16.15;100.00
38253;BME280;24785;52.372;20.672;2023-09-07T19:18:11;101735.47;;;15.81;100.00
38253;BME280;24785;52.372;20.672;2023-09-07T19:28:13;101729.06;;;15.62;100.00
38253;BME280;24785;52.372;20.672;2023-09-07T19:38:13;101724.19;;;15.54;100.00
38253;BME280;24785;52.372;20.672;2023-09-07T19:48:14;101725.03;;;15.39;100.00
38253;BME280;24785;52.372;20.672;2023-09-07T19:58:15;101707.25;;;15.12;100.00
38253;BME280;24785;52.372;20.672;2023-09-07T20:08:16;101704.31;;;14.94;100.00
38253;BME280;24785;52.372;20.672;2023-09-07T20:18:17;101694.34;;;14.69;100.00
38253;BME280;24785;52.372;20.672;2023-09-07T20:28:18;101705.38;;;14.62;100.00
38253;BME280;24785;52.372;20.672;2023-09-07T20:38:19;101702.63;;;14.42;100.00
38253;BME280;24785;52.372;20.672;2023-09-07T20:48:20;101707.75;;;14.28;100.00
38253;BME280;24785;52.372;20.672;2023-09-07T20:58:21;101692.59;;;14.12;100.00
38253;BME280;24785;52.372;20.672;2023-09-07T21:08:22;101685.53;;;13.91;100.00
38253;BME280;24785;52.372;20.672;2023-09-07T21:18:23;101695.94;;;13.67;100.00
38253;BME280;24785;52.372;20.672;2023-09-07T21:28:24;101677.31;;;13.55;100.00
38253;BME280;24785;52.372;20.672;2023-09-07T21:38:25;101683.13;;;13.32;100.00
38253;BME280;24785;52.372;20.672;2023-09-07T21:48:26;101677.81;;;13.47;100.00
38253;BME280;24785;52.372;20.672;2023-09-07T21:58:26;101678.06;;;13.45;100.00
38253;BME280;24785;52.372;20.672;2023-09-07T22:08:27;101678.84;;;13.36;100.00
38253;BME280;24785;52.372;20.672;2023-09-07T22:18:29;101668.84;;;13.31;100.00
38253;BME280;24785;52.372;20.672;2023-09-07T22:28:29;101687.53;;;13.11;100.00
38253;BME280;24785;52.372;20.672;2023-09-07T22:38:30;101683.16;;;13.00;100.00
38253;BME280;24785;52.372;20.672;2023-09-07T22:48:31;101678.47;;;12.85;100.00
38253;BME280;24785;52.372;20.672;2023-09-07T22:58:32;101682.06;;;12.64;100.00
38253;BME280;24785;52.372;20.672;2023-09-07T23:08:33;101678.84;;;12.67;100.00
38253;BME280;24785;52.372;20.672;2023-09-07T23:18:33;101684.97;;;12.57;100.00
38253;BME280;24785;52.372;20.672;2023-09-07T23:28:37;101681.75;;;12.60;100.00
38253;BME280;24785;52.372;20.672;2023-09-07T23:38:39;101677.72;;;12.57;100.00
38253;BME280;24785;52.372;20.672;2023-09-07T23:48:42;101685.72;;;12.52;100.00
38253;BME280;24785;52.372;20.672;2023-09-07T23:58:43;101682.72;;;12.44;100.00
